EZY2335 EGGW-LEMG
Flight info
| Callsign | EZY2335 |
|---|---|
| Flight time | 2h 37m |
| Altitude | 35000 |
| Route | RODNI N27 ICTAM Q63 CPT Y321 PEPIS Q41 SAM M195 MARUK N621 LELNA DCT NOVAN DCT DELOG DCT CRISA/N0443F370 N864 VULPE |
| Aircraft | A320/M-SDE3FGHIRWY/LB1 |
Departure
| Time | 2026-05-05 22:42 |
|---|---|
| Airport | London Luton Airport (EGGW) |
Arrival
| Time | 2026-05-06 01:19 |
|---|---|
| Airport | Málaga-Costa del Sol Airport (LEMG) |
| Time | Latitude | Longitude | Altitude | Speed | Heading |
|---|---|---|---|---|---|
| 2026-05-05 22:15 | 51.87858 | -0.37895 | 524 ft | 0 kts | 46° |
| 2026-05-05 22:31 | 51.87851 | -0.37906 | 523 ft | 4 kts | 52° |
| 2026-05-05 22:32 | 51.87840 | -0.37942 | 523 ft | 4 kts | 87° |
| 2026-05-05 22:32 | 51.87842 | -0.37977 | 523 ft | 1 kts | 103° |
| 2026-05-05 22:32 | 51.87843 | -0.37983 | 523 ft | 0 kts | 103° |
| 2026-05-05 22:35 | 51.87841 | -0.37978 | 523 ft | 3 kts | 118° |
| 2026-05-05 22:36 | 51.87807 | -0.37929 | 523 ft | 6 kts | 130° |
| 2026-05-05 22:36 | 51.87789 | -0.37874 | 523 ft | 5 kts | 112° |
| 2026-05-05 22:36 | 51.87777 | -0.37828 | 523 ft | 6 kts | 112° |
| 2026-05-05 22:36 | 51.87759 | -0.37769 | 523 ft | 5 kts | 117° |
| 2026-05-05 22:37 | 51.87743 | -0.37716 | 522 ft | 9 kts | 117° |
| 2026-05-05 22:37 | 51.87699 | -0.37574 | 519 ft | 12 kts | 115° |
| 2026-05-05 22:37 | 51.87658 | -0.37490 | 522 ft | 8 kts | 143° |
| 2026-05-05 22:37 | 51.87608 | -0.37456 | 523 ft | 9 kts | 170° |
| 2026-05-05 22:38 | 51.87532 | -0.37478 | 521 ft | 14 kts | 204° |
| 2026-05-05 22:38 | 51.87494 | -0.37599 | 523 ft | 11 kts | 254° |
| 2026-05-05 22:38 | 51.87474 | -0.37703 | 523 ft | 9 kts | 252° |
| 2026-05-05 22:38 | 51.87458 | -0.37796 | 522 ft | 11 kts | 255° |
| 2026-05-05 22:39 | 51.87436 | -0.37931 | 523 ft | 11 kts | 255° |
| 2026-05-05 22:39 | 51.87406 | -0.38029 | 524 ft | 9 kts | 230° |
| 2026-05-05 22:39 | 51.87355 | -0.38079 | 522 ft | 8 kts | 207° |
| 2026-05-05 22:39 | 51.87297 | -0.38108 | 522 ft | 8 kts | 186° |
| 2026-05-05 22:40 | 51.87254 | -0.38129 | 523 ft | 5 kts | 221° |
| 2026-05-05 22:40 | 51.87236 | -0.38174 | 523 ft | 8 kts | 243° |
| 2026-05-05 22:40 | 51.87230 | -0.38267 | 522 ft | 9 kts | 281° |
| 2026-05-05 22:40 | 51.87211 | -0.38287 | 521 ft | 1 kts | 91° |
| 2026-05-05 22:41 | 51.87214 | -0.38280 | 521 ft | 3 kts | 73° |
| 2026-05-05 22:41 | 51.87215 | -0.38273 | 521 ft | 0 kts | 74° |
| 2026-05-05 22:41 | 51.87228 | -0.38199 | 523 ft | 30 kts | 74° |
| 2026-05-05 22:41 | 51.87354 | -0.37471 | 522 ft | 101 kts | 74° |
| 2026-05-05 22:42 | 51.87596 | -0.36085 | 581 ft | 147 kts | 71° |
| 2026-05-05 22:42 | 51.87877 | -0.34508 | 1280 ft | 146 kts | 70° |
| 2026-05-05 22:42 | 51.88169 | -0.32921 | 1886 ft | 153 kts | 70° |
| 2026-05-05 22:42 | 51.88492 | -0.31161 | 2149 ft | 172 kts | 71° |
| 2026-05-05 22:43 | 51.88851 | -0.29183 | 2417 ft | 194 kts | 71° |
| 2026-05-05 22:43 | 51.89211 | -0.26941 | 2682 ft | 219 kts | 82° |
| 2026-05-05 22:43 | 51.88901 | -0.24409 | 3091 ft | 247 kts | 118° |
| 2026-05-05 22:43 | 51.87602 | -0.22549 | 3725 ft | 266 kts | 154° |
| 2026-05-05 22:44 | 51.85747 | -0.22082 | 3970 ft | 276 kts | 188° |
| 2026-05-05 22:44 | 51.84022 | -0.23337 | 4006 ft | 275 kts | 223° |
| 2026-05-05 22:44 | 51.83021 | -0.25902 | 4011 ft | 272 kts | 255° |
| 2026-05-05 22:44 | 51.82654 | -0.28889 | 4007 ft | 271 kts | 265° |
| 2026-05-05 22:45 | 51.82480 | -0.31940 | 4007 ft | 272 kts | 268° |
| 2026-05-05 22:45 | 51.82295 | -0.34987 | 4010 ft | 274 kts | 266° |
| 2026-05-05 22:45 | 51.82033 | -0.38021 | 4007 ft | 272 kts | 263° |
| 2026-05-05 22:45 | 51.81697 | -0.41034 | 4010 ft | 273 kts | 261° |
| 2026-05-05 22:46 | 51.81307 | -0.44029 | 4007 ft | 271 kts | 259° |
| 2026-05-05 22:46 | 51.80881 | -0.47022 | 4350 ft | 277 kts | 259° |
| 2026-05-05 22:46 | 51.80427 | -0.50082 | 4900 ft | 278 kts | 258° |
| 2026-05-05 22:46 | 51.79970 | -0.53099 | 4993 ft | 276 kts | 258° |
| 2026-05-05 22:47 | 51.79511 | -0.56093 | 5003 ft | 275 kts | 258° |
| 2026-05-05 22:47 | 51.79050 | -0.59080 | 5006 ft | 273 kts | 258° |
| 2026-05-05 22:47 | 51.78591 | -0.62062 | 5006 ft | 274 kts | 258° |
| 2026-05-05 22:47 | 51.78134 | -0.65038 | 5005 ft | 272 kts | 257° |
| 2026-05-05 22:48 | 51.77676 | -0.68007 | 5003 ft | 273 kts | 258° |
| 2026-05-05 22:48 | 51.77219 | -0.70982 | 5003 ft | 273 kts | 257° |
| 2026-05-05 22:48 | 51.76762 | -0.73931 | 5004 ft | 275 kts | 258° |
| 2026-05-05 22:48 | 51.76262 | -0.76948 | 5002 ft | 275 kts | 252° |
| 2026-05-05 22:49 | 51.75399 | -0.79701 | 5009 ft | 277 kts | 237° |
| 2026-05-05 22:49 | 51.74125 | -0.82031 | 5009 ft | 277 kts | 225° |
| 2026-05-05 22:49 | 51.72765 | -0.84214 | 5007 ft | 277 kts | 226° |
| 2026-05-05 22:49 | 51.71402 | -0.86412 | 5008 ft | 277 kts | 226° |
| 2026-05-05 22:50 | 51.70016 | -0.88646 | 5464 ft | 283 kts | 226° |
| 2026-05-05 22:50 | 51.68639 | -0.90858 | 6503 ft | 278 kts | 226° |
| 2026-05-05 22:50 | 51.67269 | -0.93060 | 7359 ft | 279 kts | 226° |
| 2026-05-05 22:50 | 51.65901 | -0.95258 | 8134 ft | 283 kts | 227° |
| 2026-05-05 22:51 | 51.64501 | -0.97505 | 8885 ft | 286 kts | 227° |
| 2026-05-05 22:51 | 51.63078 | -0.99784 | 9658 ft | 290 kts | 227° |
| 2026-05-05 22:51 | 51.61637 | -1.02093 | 10283 ft | 298 kts | 227° |
| 2026-05-05 22:51 | 51.60111 | -1.04541 | 10457 ft | 321 kts | 226° |
| 2026-05-05 22:52 | 51.58483 | -1.07146 | 10810 ft | 336 kts | 226° |
| 2026-05-05 22:52 | 51.56815 | -1.09808 | 11441 ft | 340 kts | 226° |
| 2026-05-05 22:52 | 51.55120 | -1.12505 | 12106 ft | 344 kts | 226° |
| 2026-05-05 22:52 | 51.53416 | -1.15210 | 12786 ft | 347 kts | 226° |
| 2026-05-05 22:53 | 51.51682 | -1.17920 | 13478 ft | 350 kts | 223° |
| 2026-05-05 22:53 | 51.49680 | -1.20187 | 14101 ft | 356 kts | 210° |
| 2026-05-05 22:53 | 51.47373 | -1.21695 | 14700 ft | 361 kts | 197° |
| 2026-05-05 22:53 | 51.44888 | -1.22333 | 15307 ft | 365 kts | 184° |
| 2026-05-05 22:54 | 51.42349 | -1.22524 | 15895 ft | 367 kts | 184° |
| 2026-05-05 22:54 | 51.39785 | -1.22721 | 16493 ft | 369 kts | 184° |
| 2026-05-05 22:54 | 51.37218 | -1.22928 | 17085 ft | 371 kts | 184° |
| 2026-05-05 22:54 | 51.34632 | -1.23145 | 17684 ft | 373 kts | 184° |
| 2026-05-05 22:55 | 51.32032 | -1.23367 | 18245 ft | 376 kts | 184° |
| 2026-05-05 22:55 | 51.29410 | -1.23588 | 18712 ft | 379 kts | 184° |
| 2026-05-05 22:55 | 51.26765 | -1.23803 | 19201 ft | 382 kts | 184° |
| 2026-05-05 22:55 | 51.24102 | -1.24014 | 19687 ft | 384 kts | 184° |
| 2026-05-05 22:56 | 51.21421 | -1.24225 | 20184 ft | 387 kts | 184° |
| 2026-05-05 22:56 | 51.18743 | -1.24763 | 20675 ft | 388 kts | 194° |
| 2026-05-05 22:56 | 51.16123 | -1.25853 | 21155 ft | 391 kts | 196° |
| 2026-05-05 22:56 | 51.13487 | -1.26977 | 21641 ft | 393 kts | 196° |
| 2026-05-05 22:57 | 51.10869 | -1.28085 | 22121 ft | 396 kts | 196° |
| 2026-05-05 22:57 | 51.08165 | -1.29223 | 22603 ft | 398 kts | 196° |
| 2026-05-05 22:57 | 51.05469 | -1.30350 | 23071 ft | 401 kts | 196° |
| 2026-05-05 22:57 | 51.02799 | -1.31463 | 23517 ft | 404 kts | 197° |
| 2026-05-05 22:58 | 51.00073 | -1.32601 | 23907 ft | 406 kts | 197° |
| 2026-05-05 22:58 | 50.97347 | -1.33775 | 24299 ft | 407 kts | 200° |
| 2026-05-05 22:58 | 50.94736 | -1.35480 | 24672 ft | 406 kts | 209° |
| 2026-05-05 22:58 | 50.92325 | -1.37820 | 25044 ft | 406 kts | 215° |
| 2026-05-05 22:59 | 50.89971 | -1.40299 | 25409 ft | 407 kts | 215° |
| 2026-05-05 22:59 | 50.87604 | -1.42777 | 25804 ft | 408 kts | 214° |
| 2026-05-05 22:59 | 50.85233 | -1.45248 | 26150 ft | 409 kts | 214° |
| 2026-05-05 22:59 | 50.82846 | -1.47730 | 26459 ft | 412 kts | 214° |
| 2026-05-05 23:00 | 50.78035 | -1.52717 | 27117 ft | 415 kts | 214° |
| 2026-05-05 23:00 | 50.75616 | -1.55218 | 27444 ft | 416 kts | 214° |
| 2026-05-05 23:00 | 50.73192 | -1.57717 | 27766 ft | 418 kts | 214° |
| 2026-05-05 23:01 | 50.70748 | -1.60233 | 28085 ft | 419 kts | 214° |
| 2026-05-05 23:01 | 50.68307 | -1.62747 | 28393 ft | 421 kts | 214° |
| 2026-05-05 23:01 | 50.65846 | -1.65278 | 28695 ft | 422 kts | 213° |
| 2026-05-05 23:01 | 50.63386 | -1.67800 | 28979 ft | 424 kts | 213° |
| 2026-05-05 23:02 | 50.60905 | -1.70343 | 29148 ft | 428 kts | 213° |
| 2026-05-05 23:02 | 50.58476 | -1.72831 | 29379 ft | 430 kts | 213° |
| 2026-05-05 23:02 | 50.55960 | -1.75405 | 29638 ft | 432 kts | 213° |
| 2026-05-05 23:02 | 50.53437 | -1.77987 | 29899 ft | 433 kts | 213° |
| 2026-05-05 23:03 | 50.50904 | -1.80579 | 30141 ft | 435 kts | 213° |
| 2026-05-05 23:03 | 50.48366 | -1.83171 | 30350 ft | 436 kts | 213° |
| 2026-05-05 23:03 | 50.45822 | -1.85766 | 30555 ft | 437 kts | 213° |
| 2026-05-05 23:03 | 50.43280 | -1.88357 | 30893 ft | 434 kts | 213° |
| 2026-05-05 23:04 | 50.40751 | -1.90926 | 31215 ft | 432 kts | 213° |
| 2026-05-05 23:04 | 50.38223 | -1.93487 | 31444 ft | 433 kts | 213° |
| 2026-05-05 23:04 | 50.35692 | -1.96049 | 31689 ft | 433 kts | 213° |
| 2026-05-05 23:04 | 50.33174 | -1.98597 | 31988 ft | 432 kts | 213° |
| 2026-05-05 23:05 | 50.30648 | -2.01149 | 32209 ft | 433 kts | 212° |
| 2026-05-05 23:05 | 50.28146 | -2.03659 | 32495 ft | 431 kts | 210° |
| 2026-05-05 23:05 | 50.25439 | -2.05799 | 32765 ft | 430 kts | 201° |
| 2026-05-05 23:05 | 50.22626 | -2.07207 | 32983 ft | 431 kts | 192° |
| 2026-05-05 23:06 | 50.19666 | -2.07905 | 33246 ft | 430 kts | 185° |
| 2026-05-05 23:06 | 50.16689 | -2.08271 | 33567 ft | 429 kts | 184° |
| 2026-05-05 23:06 | 50.13699 | -2.08646 | 33719 ft | 431 kts | 185° |
| 2026-05-05 23:06 | 50.10718 | -2.09028 | 33893 ft | 433 kts | 185° |
| 2026-05-05 23:07 | 50.08680 | -2.09293 | 34037 ft | 433 kts | 185° |
| 2026-05-05 23:07 | 50.05680 | -2.09686 | 34253 ft | 432 kts | 185° |
| 2026-05-05 23:07 | 50.02681 | -2.10079 | 34430 ft | 433 kts | 185° |
| 2026-05-05 23:07 | 49.99677 | -2.10484 | 34577 ft | 434 kts | 187° |
| 2026-05-05 23:08 | 49.96754 | -2.11349 | 34756 ft | 434 kts | 196° |
| 2026-05-05 23:08 | 49.93865 | -2.12693 | 34918 ft | 434 kts | 197° |
| 2026-05-05 23:08 | 49.88105 | -2.15398 | 34968 ft | 431 kts | 197° |
| 2026-05-05 23:09 | 49.82370 | -2.18081 | 34968 ft | 430 kts | 197° |
| 2026-05-05 23:09 | 49.76637 | -2.20748 | 34970 ft | 430 kts | 197° |
| 2026-05-05 23:10 | 49.70905 | -2.23398 | 34973 ft | 431 kts | 196° |
| 2026-05-05 23:10 | 49.65152 | -2.26058 | 34962 ft | 431 kts | 197° |
| 2026-05-05 23:11 | 49.59396 | -2.28727 | 34954 ft | 432 kts | 197° |
| 2026-05-05 23:11 | 49.53620 | -2.31379 | 34952 ft | 433 kts | 197° |
| 2026-05-05 23:12 | 49.47841 | -2.34026 | 34958 ft | 434 kts | 197° |
| 2026-05-05 23:12 | 49.42054 | -2.36681 | 34960 ft | 434 kts | 197° |
| 2026-05-05 23:13 | 49.36260 | -2.39342 | 34959 ft | 435 kts | 197° |
| 2026-05-05 23:13 | 49.30495 | -2.41981 | 34958 ft | 435 kts | 197° |
| 2026-05-05 23:14 | 49.24688 | -2.44620 | 34960 ft | 435 kts | 196° |
| 2026-05-05 23:14 | 49.18876 | -2.47243 | 34963 ft | 435 kts | 196° |
| 2026-05-05 23:15 | 49.13064 | -2.49878 | 34963 ft | 436 kts | 196° |
| 2026-05-05 23:15 | 49.07246 | -2.52514 | 34963 ft | 436 kts | 196° |
| 2026-05-05 23:16 | 49.01430 | -2.55134 | 34955 ft | 436 kts | 195° |
| 2026-05-05 23:16 | 48.95611 | -2.57741 | 34955 ft | 436 kts | 196° |
| 2026-05-05 23:17 | 48.89785 | -2.60356 | 34955 ft | 437 kts | 196° |
| 2026-05-05 23:17 | 48.83954 | -2.62981 | 34954 ft | 437 kts | 197° |
| 2026-05-05 23:18 | 48.78107 | -2.65590 | 34941 ft | 439 kts | 197° |
| 2026-05-05 23:18 | 48.72275 | -2.68174 | 34941 ft | 440 kts | 197° |
| 2026-05-05 23:19 | 48.66381 | -2.70797 | 34947 ft | 441 kts | 197° |
| 2026-05-05 23:19 | 48.60483 | -2.73424 | 34955 ft | 442 kts | 197° |
| 2026-05-05 23:20 | 48.54578 | -2.76026 | 34959 ft | 442 kts | 197° |
| 2026-05-05 23:20 | 48.48667 | -2.78623 | 34967 ft | 442 kts | 197° |
| 2026-05-05 23:21 | 48.42752 | -2.81214 | 34967 ft | 443 kts | 197° |
| 2026-05-05 23:21 | 48.36834 | -2.83805 | 34959 ft | 443 kts | 197° |
| 2026-05-05 23:22 | 48.30947 | -2.86388 | 34961 ft | 443 kts | 196° |
| 2026-05-05 23:22 | 48.25024 | -2.88981 | 34958 ft | 444 kts | 197° |
| 2026-05-05 23:23 | 48.19087 | -2.91572 | 34970 ft | 444 kts | 196° |
| 2026-05-05 23:23 | 48.13158 | -2.94157 | 34969 ft | 444 kts | 196° |
| 2026-05-05 23:24 | 48.07220 | -2.96725 | 34963 ft | 444 kts | 196° |
| 2026-05-05 23:24 | 48.01277 | -2.99299 | 34954 ft | 445 kts | 197° |
| 2026-05-05 23:25 | 47.95324 | -3.01861 | 34959 ft | 446 kts | 197° |
| 2026-05-05 23:25 | 47.89357 | -3.04423 | 34953 ft | 447 kts | 197° |
| 2026-05-05 23:26 | 47.83380 | -3.06988 | 34949 ft | 447 kts | 197° |
| 2026-05-05 23:26 | 47.77399 | -3.09552 | 34951 ft | 447 kts | 197° |
| 2026-05-05 23:27 | 47.71428 | -3.12105 | 34975 ft | 447 kts | 197° |
| 2026-05-05 23:27 | 47.65432 | -3.14666 | 34966 ft | 449 kts | 197° |
| 2026-05-05 23:28 | 47.59426 | -3.17225 | 34967 ft | 449 kts | 196° |
| 2026-05-05 23:28 | 47.53458 | -3.19754 | 34966 ft | 450 kts | 197° |
| 2026-05-05 23:29 | 47.47420 | -3.22299 | 34968 ft | 452 kts | 196° |
| 2026-05-05 23:29 | 47.41370 | -3.24844 | 34974 ft | 452 kts | 196° |
| 2026-05-05 23:30 | 47.35321 | -3.27393 | 34970 ft | 452 kts | 196° |
| 2026-05-05 23:30 | 47.29276 | -3.29941 | 34970 ft | 452 kts | 196° |
| 2026-05-05 23:31 | 47.23231 | -3.32478 | 34956 ft | 452 kts | 196° |
| 2026-05-05 23:31 | 47.17168 | -3.35010 | 34957 ft | 453 kts | 196° |
| 2026-05-05 23:32 | 47.11100 | -3.37543 | 34963 ft | 454 kts | 196° |
| 2026-05-05 23:32 | 47.05027 | -3.40074 | 34970 ft | 454 kts | 196° |
| 2026-05-05 23:33 | 46.98945 | -3.42603 | 34962 ft | 454 kts | 196° |
| 2026-05-05 23:33 | 46.92860 | -3.45120 | 34966 ft | 455 kts | 196° |
| 2026-05-05 23:34 | 46.86763 | -3.47633 | 34979 ft | 455 kts | 196° |
| 2026-05-05 23:34 | 46.80682 | -3.50146 | 34976 ft | 455 kts | 196° |
| 2026-05-05 23:35 | 46.74593 | -3.52651 | 34973 ft | 455 kts | 195° |
| 2026-05-05 23:35 | 46.68495 | -3.55152 | 34971 ft | 455 kts | 195° |
| 2026-05-05 23:36 | 46.62408 | -3.57649 | 34975 ft | 455 kts | 195° |
| 2026-05-05 23:36 | 46.56348 | -3.60110 | 34975 ft | 455 kts | 195° |
| 2026-05-05 23:37 | 46.50248 | -3.62593 | 34977 ft | 455 kts | 195° |
| 2026-05-05 23:37 | 46.44139 | -3.65083 | 34976 ft | 455 kts | 195° |
| 2026-05-05 23:38 | 46.38052 | -3.67555 | 34980 ft | 454 kts | 195° |
| 2026-05-05 23:38 | 46.31939 | -3.69888 | 34973 ft | 454 kts | 189° |
| 2026-05-05 23:39 | 46.25663 | -3.70903 | 34974 ft | 454 kts | 185° |
| 2026-05-05 23:39 | 46.19371 | -3.71836 | 34978 ft | 454 kts | 185° |
| 2026-05-05 23:40 | 46.13086 | -3.72784 | 34979 ft | 454 kts | 185° |
| 2026-05-05 23:40 | 46.06801 | -3.73716 | 34972 ft | 454 kts | 185° |
| 2026-05-05 23:41 | 46.00507 | -3.74643 | 34976 ft | 454 kts | 185° |
| 2026-05-05 23:41 | 45.94264 | -3.75565 | 34975 ft | 454 kts | 185° |
| 2026-05-05 23:42 | 45.87984 | -3.76501 | 34980 ft | 453 kts | 186° |
| 2026-05-05 23:42 | 45.81703 | -3.77428 | 34972 ft | 454 kts | 186° |
| 2026-05-05 23:43 | 45.75420 | -3.78352 | 34981 ft | 454 kts | 186° |
| 2026-05-05 23:43 | 45.69135 | -3.79273 | 34975 ft | 454 kts | 186° |
| 2026-05-05 23:44 | 45.62858 | -3.80181 | 34979 ft | 453 kts | 186° |
| 2026-05-05 23:44 | 45.56574 | -3.81098 | 34971 ft | 453 kts | 186° |
| 2026-05-05 23:45 | 45.50302 | -3.82012 | 34972 ft | 453 kts | 187° |
| 2026-05-05 23:45 | 45.44021 | -3.82921 | 34978 ft | 453 kts | 187° |
| 2026-05-05 23:46 | 45.37751 | -3.83840 | 34971 ft | 454 kts | 186° |
| 2026-05-05 23:46 | 45.31462 | -3.84747 | 34984 ft | 454 kts | 187° |
| 2026-05-05 23:47 | 45.25185 | -3.85652 | 34985 ft | 453 kts | 187° |
| 2026-05-05 23:47 | 45.18913 | -3.86551 | 34981 ft | 453 kts | 187° |
| 2026-05-05 23:48 | 45.12643 | -3.87460 | 34977 ft | 453 kts | 187° |
| 2026-05-05 23:48 | 45.06375 | -3.88361 | 34986 ft | 453 kts | 187° |
| 2026-05-05 23:49 | 45.00107 | -3.89253 | 34987 ft | 452 kts | 187° |
| 2026-05-05 23:49 | 44.93845 | -3.90148 | 34983 ft | 452 kts | 187° |
| 2026-05-05 23:50 | 44.87590 | -3.91040 | 34996 ft | 451 kts | 188° |
| 2026-05-05 23:50 | 44.81347 | -3.91920 | 35001 ft | 450 kts | 187° |
| 2026-05-05 23:51 | 44.75150 | -3.92795 | 34999 ft | 450 kts | 186° |
| 2026-05-05 23:51 | 44.68925 | -3.93687 | 34992 ft | 450 kts | 187° |
| 2026-05-05 23:52 | 44.62709 | -3.94567 | 35000 ft | 449 kts | 188° |
| 2026-05-05 23:52 | 44.56486 | -3.95440 | 34989 ft | 449 kts | 187° |
| 2026-05-05 23:53 | 44.51273 | -3.96176 | 34998 ft | 449 kts | 188° |
| 2026-05-05 23:53 | 44.45063 | -3.97053 | 35016 ft | 448 kts | 187° |
| 2026-05-05 23:54 | 44.38855 | -3.97921 | 35015 ft | 448 kts | 188° |
| 2026-05-05 23:54 | 44.32691 | -3.98777 | 35017 ft | 447 kts | 187° |
| 2026-05-05 23:55 | 44.26494 | -3.99547 | 35014 ft | 447 kts | 187° |
| 2026-05-05 23:55 | 44.20293 | -4.00218 | 35021 ft | 447 kts | 187° |
| 2026-05-05 23:56 | 44.14098 | -4.00893 | 35013 ft | 446 kts | 187° |
| 2026-05-05 23:56 | 44.07909 | -4.01602 | 35008 ft | 446 kts | 187° |
| 2026-05-05 23:57 | 44.01729 | -4.02314 | 35015 ft | 445 kts | 187° |
| 2026-05-05 23:57 | 43.95551 | -4.03014 | 35012 ft | 445 kts | 188° |
| 2026-05-05 23:58 | 43.89373 | -4.03716 | 35011 ft | 446 kts | 187° |
| 2026-05-05 23:58 | 43.83230 | -4.04413 | 35017 ft | 446 kts | 187° |
| 2026-05-05 23:59 | 43.77044 | -4.05115 | 35019 ft | 446 kts | 187° |
| 2026-05-05 23:59 | 43.70861 | -4.05809 | 35020 ft | 445 kts | 187° |
| 2026-05-06 00:00 | 43.64683 | -4.06500 | 35029 ft | 445 kts | 187° |
| 2026-05-06 00:00 | 43.58500 | -4.07195 | 35044 ft | 445 kts | 188° |
| 2026-05-06 00:01 | 43.52327 | -4.07891 | 35044 ft | 444 kts | 188° |
| 2026-05-06 00:01 | 43.46162 | -4.08576 | 35058 ft | 443 kts | 188° |
| 2026-05-06 00:02 | 43.40017 | -4.09258 | 35059 ft | 443 kts | 188° |
| 2026-05-06 00:02 | 43.33876 | -4.09947 | 35051 ft | 442 kts | 189° |
| 2026-05-06 00:03 | 43.27787 | -4.10629 | 35048 ft | 442 kts | 189° |
| 2026-05-06 00:03 | 43.21656 | -4.11302 | 35055 ft | 442 kts | 188° |
| 2026-05-06 00:04 | 43.15529 | -4.11970 | 35064 ft | 442 kts | 188° |
| 2026-05-06 00:04 | 43.09399 | -4.12655 | 35054 ft | 442 kts | 189° |
| 2026-05-06 00:05 | 43.00207 | -4.13675 | 35057 ft | 442 kts | 189° |
| 2026-05-06 00:06 | 42.94074 | -4.14343 | 35054 ft | 442 kts | 190° |
| 2026-05-06 00:06 | 42.87947 | -4.15015 | 35068 ft | 441 kts | 190° |
| 2026-05-06 00:07 | 42.81823 | -4.15690 | 35074 ft | 441 kts | 190° |
| 2026-05-06 00:07 | 42.75704 | -4.16354 | 35077 ft | 441 kts | 190° |
| 2026-05-06 00:08 | 42.69586 | -4.17016 | 35075 ft | 441 kts | 190° |
| 2026-05-06 00:08 | 42.63467 | -4.17680 | 35076 ft | 441 kts | 190° |
| 2026-05-06 00:09 | 42.57358 | -4.18349 | 35068 ft | 441 kts | 190° |
| 2026-05-06 00:09 | 42.51227 | -4.19017 | 35049 ft | 440 kts | 190° |
| 2026-05-06 00:10 | 42.45130 | -4.19679 | 35070 ft | 440 kts | 190° |
| 2026-05-06 00:10 | 42.39037 | -4.20338 | 35075 ft | 439 kts | 190° |
| 2026-05-06 00:11 | 42.32945 | -4.20990 | 35064 ft | 438 kts | 190° |
| 2026-05-06 00:11 | 42.26867 | -4.21637 | 35066 ft | 438 kts | 190° |
| 2026-05-06 00:12 | 42.20799 | -4.22290 | 35074 ft | 437 kts | 191° |
| 2026-05-06 00:12 | 42.14737 | -4.22939 | 35068 ft | 437 kts | 190° |
| 2026-05-06 00:13 | 42.08719 | -4.23584 | 35048 ft | 436 kts | 191° |
| 2026-05-06 00:13 | 42.02676 | -4.24234 | 35057 ft | 435 kts | 190° |
| 2026-05-06 00:14 | 41.96647 | -4.24875 | 35057 ft | 435 kts | 190° |
| 2026-05-06 00:14 | 41.90617 | -4.25510 | 35040 ft | 434 kts | 191° |
| 2026-05-06 00:15 | 41.84595 | -4.26141 | 35055 ft | 434 kts | 191° |
| 2026-05-06 00:15 | 41.78584 | -4.26777 | 35050 ft | 433 kts | 191° |
| 2026-05-06 00:16 | 41.72579 | -4.27416 | 35056 ft | 433 kts | 191° |
| 2026-05-06 00:16 | 41.66573 | -4.28052 | 35032 ft | 432 kts | 191° |
| 2026-05-06 00:17 | 41.60588 | -4.28687 | 35051 ft | 431 kts | 191° |
| 2026-05-06 00:17 | 41.54600 | -4.29324 | 35050 ft | 431 kts | 191° |
| 2026-05-06 00:18 | 41.48624 | -4.29953 | 35048 ft | 431 kts | 191° |
| 2026-05-06 00:18 | 41.42653 | -4.30561 | 35039 ft | 430 kts | 191° |
| 2026-05-06 00:19 | 41.36697 | -4.31176 | 35045 ft | 429 kts | 191° |
| 2026-05-06 00:19 | 41.30739 | -4.31802 | 35047 ft | 429 kts | 191° |
| 2026-05-06 00:20 | 41.24782 | -4.32422 | 35031 ft | 429 kts | 191° |
| 2026-05-06 00:20 | 41.18825 | -4.33044 | 35041 ft | 429 kts | 191° |
| 2026-05-06 00:21 | 41.12883 | -4.33665 | 35056 ft | 429 kts | 191° |
| 2026-05-06 00:21 | 41.06936 | -4.34287 | 35054 ft | 429 kts | 191° |
| 2026-05-06 00:22 | 41.00991 | -4.34894 | 35041 ft | 428 kts | 191° |
| 2026-05-06 00:22 | 40.95059 | -4.35497 | 35050 ft | 427 kts | 191° |
| 2026-05-06 00:23 | 40.89139 | -4.36105 | 35051 ft | 426 kts | 191° |
| 2026-05-06 00:23 | 40.83233 | -4.36719 | 35048 ft | 425 kts | 191° |
| 2026-05-06 00:24 | 40.77340 | -4.37329 | 35031 ft | 424 kts | 192° |
| 2026-05-06 00:24 | 40.71489 | -4.37929 | 35033 ft | 424 kts | 192° |
| 2026-05-06 00:25 | 40.65617 | -4.38531 | 35033 ft | 423 kts | 192° |
| 2026-05-06 00:25 | 40.59738 | -4.39131 | 35029 ft | 423 kts | 192° |
| 2026-05-06 00:26 | 40.53870 | -4.39731 | 35020 ft | 423 kts | 192° |
| 2026-05-06 00:26 | 40.48000 | -4.40323 | 35019 ft | 423 kts | 192° |
| 2026-05-06 00:27 | 40.42124 | -4.40918 | 35012 ft | 423 kts | 192° |
| 2026-05-06 00:27 | 40.36256 | -4.41516 | 34983 ft | 423 kts | 192° |
| 2026-05-06 00:28 | 40.30393 | -4.42103 | 34997 ft | 422 kts | 192° |
| 2026-05-06 00:28 | 40.24542 | -4.42693 | 35000 ft | 421 kts | 192° |
| 2026-05-06 00:29 | 40.18693 | -4.43284 | 34999 ft | 421 kts | 192° |
| 2026-05-06 00:29 | 40.12854 | -4.43873 | 34986 ft | 421 kts | 192° |
| 2026-05-06 00:30 | 40.07023 | -4.44458 | 34989 ft | 420 kts | 192° |
| 2026-05-06 00:30 | 40.01226 | -4.45042 | 34990 ft | 420 kts | 191° |
| 2026-05-06 00:31 | 39.95390 | -4.45630 | 34992 ft | 420 kts | 192° |
| 2026-05-06 00:31 | 39.89560 | -4.46217 | 34973 ft | 420 kts | 191° |
| 2026-05-06 00:32 | 39.83737 | -4.46791 | 34981 ft | 419 kts | 191° |
| 2026-05-06 00:32 | 39.77911 | -4.47368 | 34988 ft | 419 kts | 191° |
| 2026-05-06 00:33 | 39.72096 | -4.47947 | 34989 ft | 419 kts | 191° |
| 2026-05-06 00:33 | 39.66276 | -4.48534 | 34972 ft | 419 kts | 192° |
| 2026-05-06 00:34 | 39.60507 | -4.49113 | 34987 ft | 419 kts | 192° |
| 2026-05-06 00:34 | 39.54695 | -4.49691 | 34977 ft | 419 kts | 192° |
| 2026-05-06 00:35 | 39.48886 | -4.50259 | 34948 ft | 418 kts | 192° |
| 2026-05-06 00:35 | 39.43091 | -4.50830 | 34967 ft | 418 kts | 192° |
| 2026-05-06 00:36 | 39.38234 | -4.51304 | 34977 ft | 417 kts | 192° |
| 2026-05-06 00:36 | 39.32445 | -4.51871 | 34981 ft | 417 kts | 192° |
| 2026-05-06 00:37 | 39.26659 | -4.52434 | 34978 ft | 417 kts | 192° |
| 2026-05-06 00:37 | 39.20906 | -4.53001 | 34958 ft | 417 kts | 192° |
| 2026-05-06 00:38 | 39.15117 | -4.53575 | 34967 ft | 417 kts | 192° |
| 2026-05-06 00:38 | 39.09324 | -4.54138 | 34970 ft | 417 kts | 192° |
| 2026-05-06 00:39 | 39.03536 | -4.54702 | 34972 ft | 417 kts | 192° |
| 2026-05-06 00:39 | 38.97738 | -4.55273 | 34962 ft | 419 kts | 192° |
| 2026-05-06 00:40 | 38.91946 | -4.55919 | 34968 ft | 416 kts | 194° |
| 2026-05-06 00:40 | 38.86255 | -4.57046 | 34968 ft | 412 kts | 197° |
| 2026-05-06 00:41 | 38.80609 | -4.58355 | 34971 ft | 412 kts | 198° |
| 2026-05-06 00:41 | 38.74949 | -4.59603 | 34956 ft | 413 kts | 197° |
| 2026-05-06 00:42 | 38.69264 | -4.60785 | 34964 ft | 414 kts | 196° |
| 2026-05-06 00:42 | 38.63566 | -4.61952 | 34967 ft | 414 kts | 196° |
| 2026-05-06 00:43 | 38.57873 | -4.63120 | 34969 ft | 414 kts | 196° |
| 2026-05-06 00:43 | 38.52182 | -4.64295 | 34960 ft | 414 kts | 196° |
| 2026-05-06 00:44 | 38.46497 | -4.65468 | 34971 ft | 414 kts | 195° |
| 2026-05-06 00:44 | 38.40822 | -4.66638 | 34975 ft | 413 kts | 195° |
| 2026-05-06 00:45 | 38.35173 | -4.67796 | 34984 ft | 413 kts | 195° |
| 2026-05-06 00:45 | 38.29502 | -4.68964 | 34984 ft | 413 kts | 196° |
| 2026-05-06 00:46 | 38.23826 | -4.70133 | 34986 ft | 413 kts | 196° |
| 2026-05-06 00:46 | 38.18149 | -4.71296 | 34984 ft | 413 kts | 195° |
| 2026-05-06 00:47 | 38.12469 | -4.72445 | 34985 ft | 413 kts | 195° |
| 2026-05-06 00:47 | 38.06790 | -4.73599 | 34970 ft | 413 kts | 195° |
| 2026-05-06 00:48 | 38.01125 | -4.74757 | 34972 ft | 413 kts | 195° |
| 2026-05-06 00:48 | 37.98295 | -4.75338 | 34771 ft | 410 kts | 195° |
| 2026-05-06 00:48 | 37.95500 | -4.75904 | 34345 ft | 405 kts | 195° |
| 2026-05-06 00:48 | 37.92725 | -4.76467 | 33832 ft | 402 kts | 195° |
| 2026-05-06 00:49 | 37.89977 | -4.77026 | 33327 ft | 398 kts | 195° |
| 2026-05-06 00:49 | 37.87257 | -4.77579 | 32854 ft | 394 kts | 196° |
| 2026-05-06 00:49 | 37.84557 | -4.78127 | 32359 ft | 390 kts | 195° |
| 2026-05-06 00:49 | 37.81899 | -4.78668 | 31908 ft | 386 kts | 196° |
| 2026-05-06 00:50 | 37.79315 | -4.79416 | 31462 ft | 375 kts | 206° |
| 2026-05-06 00:50 | 37.76974 | -4.80745 | 31024 ft | 364 kts | 217° |
| 2026-05-06 00:50 | 37.74945 | -4.82580 | 30582 ft | 354 kts | 227° |
| 2026-05-06 00:50 | 37.73280 | -4.84824 | 30144 ft | 346 kts | 237° |
| 2026-05-06 00:51 | 37.71885 | -4.87283 | 29673 ft | 343 kts | 238° |
| 2026-05-06 00:51 | 37.70502 | -4.89716 | 29266 ft | 339 kts | 238° |
| 2026-05-06 00:51 | 37.69126 | -4.92115 | 28858 ft | 335 kts | 238° |
| 2026-05-06 00:51 | 37.67763 | -4.94482 | 28465 ft | 331 kts | 238° |
| 2026-05-06 00:52 | 37.66418 | -4.96820 | 28069 ft | 327 kts | 238° |
| 2026-05-06 00:52 | 37.65105 | -4.99105 | 27674 ft | 324 kts | 238° |
| 2026-05-06 00:52 | 37.63743 | -5.01399 | 27260 ft | 322 kts | 233° |
| 2026-05-06 00:52 | 37.62122 | -5.03349 | 26844 ft | 324 kts | 222° |
| 2026-05-06 00:53 | 37.60209 | -5.04878 | 26402 ft | 326 kts | 214° |
| 2026-05-06 00:53 | 37.58256 | -5.06246 | 25995 ft | 324 kts | 214° |
| 2026-05-06 00:53 | 37.56287 | -5.07628 | 25567 ft | 324 kts | 214° |
| 2026-05-06 00:53 | 37.54324 | -5.09012 | 25116 ft | 323 kts | 214° |
| 2026-05-06 00:54 | 37.52307 | -5.10266 | 24673 ft | 326 kts | 205° |
| 2026-05-06 00:54 | 37.50097 | -5.10997 | 24221 ft | 332 kts | 193° |
| 2026-05-06 00:54 | 37.47767 | -5.11135 | 23759 ft | 338 kts | 184° |
| 2026-05-06 00:54 | 37.45410 | -5.11085 | 23239 ft | 339 kts | 184° |
| 2026-05-06 00:55 | 37.43054 | -5.11048 | 22756 ft | 338 kts | 184° |
| 2026-05-06 00:55 | 37.40706 | -5.11017 | 22300 ft | 337 kts | 183° |
| 2026-05-06 00:55 | 37.38364 | -5.10646 | 21836 ft | 343 kts | 170° |
| 2026-05-06 00:55 | 37.36104 | -5.09629 | 21384 ft | 347 kts | 157° |
| 2026-05-06 00:56 | 37.33999 | -5.08115 | 20954 ft | 349 kts | 153° |
| 2026-05-06 00:56 | 37.31914 | -5.06557 | 20511 ft | 349 kts | 153° |
| 2026-05-06 00:56 | 37.29826 | -5.05000 | 20064 ft | 349 kts | 153° |
| 2026-05-06 00:56 | 37.27696 | -5.03555 | 19639 ft | 346 kts | 161° |
| 2026-05-06 00:57 | 37.25415 | -5.02674 | 19232 ft | 340 kts | 173° |
| 2026-05-06 00:57 | 37.23084 | -5.02407 | 18833 ft | 335 kts | 184° |
| 2026-05-06 00:57 | 37.20759 | -5.02391 | 18441 ft | 334 kts | 183° |
| 2026-05-06 00:57 | 37.18450 | -5.02362 | 18013 ft | 334 kts | 183° |
| 2026-05-06 00:58 | 37.16132 | -5.02325 | 17612 ft | 332 kts | 183° |
| 2026-05-06 00:58 | 37.13827 | -5.02285 | 17226 ft | 330 kts | 183° |
| 2026-05-06 00:58 | 37.11537 | -5.02246 | 16839 ft | 328 kts | 183° |
| 2026-05-06 00:58 | 37.09261 | -5.02209 | 16464 ft | 326 kts | 183° |
| 2026-05-06 00:59 | 37.07001 | -5.02173 | 16149 ft | 323 kts | 183° |
| 2026-05-06 00:59 | 37.04758 | -5.02139 | 15845 ft | 320 kts | 183° |
| 2026-05-06 00:59 | 37.02544 | -5.02108 | 15700 ft | 317 kts | 183° |
| 2026-05-06 00:59 | 37.00342 | -5.02082 | 15535 ft | 316 kts | 183° |
| 2026-05-06 01:00 | 36.98147 | -5.02058 | 15370 ft | 315 kts | 183° |
| 2026-05-06 01:00 | 36.95963 | -5.02006 | 15206 ft | 315 kts | 179° |
| 2026-05-06 01:00 | 36.93810 | -5.01441 | 15040 ft | 319 kts | 163° |
| 2026-05-06 01:00 | 36.91820 | -5.00180 | 14839 ft | 323 kts | 148° |
| 2026-05-06 01:01 | 36.90147 | -4.98350 | 14632 ft | 325 kts | 137° |
| 2026-05-06 01:01 | 36.88562 | -4.96339 | 14413 ft | 324 kts | 137° |
| 2026-05-06 01:01 | 36.86979 | -4.94337 | 14206 ft | 323 kts | 137° |
| 2026-05-06 01:01 | 36.85407 | -4.92353 | 14000 ft | 320 kts | 137° |
| 2026-05-06 01:02 | 36.83841 | -4.90383 | 13787 ft | 319 kts | 137° |
| 2026-05-06 01:02 | 36.82281 | -4.88422 | 13570 ft | 318 kts | 137° |
| 2026-05-06 01:02 | 36.80721 | -4.86460 | 13349 ft | 317 kts | 137° |
| 2026-05-06 01:02 | 36.79149 | -4.84534 | 13142 ft | 317 kts | 139° |
| 2026-05-06 01:03 | 36.77535 | -4.82665 | 12941 ft | 316 kts | 140° |
| 2026-05-06 01:03 | 36.75901 | -4.80827 | 12737 ft | 315 kts | 141° |
| 2026-05-06 01:03 | 36.74270 | -4.79008 | 12531 ft | 314 kts | 141° |
| 2026-05-06 01:03 | 36.72643 | -4.77189 | 12323 ft | 314 kts | 141° |
| 2026-05-06 01:04 | 36.71023 | -4.75371 | 12124 ft | 313 kts | 141° |
| 2026-05-06 01:04 | 36.69411 | -4.73552 | 11925 ft | 312 kts | 140° |
| 2026-05-06 01:04 | 36.67808 | -4.71737 | 11716 ft | 312 kts | 140° |
| 2026-05-06 01:04 | 36.66222 | -4.69937 | 11546 ft | 304 kts | 140° |
| 2026-05-06 01:05 | 36.64678 | -4.68188 | 11392 ft | 295 kts | 141° |
| 2026-05-06 01:05 | 36.63072 | -4.66371 | 11153 ft | 290 kts | 141° |
| 2026-05-06 01:05 | 36.61609 | -4.64717 | 10915 ft | 287 kts | 141° |
| 2026-05-06 01:05 | 36.60134 | -4.63053 | 10672 ft | 285 kts | 141° |
| 2026-05-06 01:06 | 36.58668 | -4.61399 | 10434 ft | 284 kts | 141° |
| 2026-05-06 01:06 | 36.57209 | -4.59751 | 10190 ft | 283 kts | 141° |
| 2026-05-06 01:06 | 36.55753 | -4.58112 | 9966 ft | 281 kts | 141° |
| 2026-05-06 01:06 | 36.54340 | -4.56457 | 9828 ft | 278 kts | 134° |
| 2026-05-06 01:07 | 36.53274 | -4.54479 | 9698 ft | 275 kts | 117° |
| 2026-05-06 01:07 | 36.52610 | -4.52254 | 9565 ft | 274 kts | 110° |
| 2026-05-06 01:07 | 36.51996 | -4.50015 | 9436 ft | 273 kts | 110° |
| 2026-05-06 01:07 | 36.51381 | -4.47786 | 9305 ft | 272 kts | 111° |
| 2026-05-06 01:08 | 36.50767 | -4.45571 | 9172 ft | 271 kts | 110° |
| 2026-05-06 01:08 | 36.50153 | -4.43358 | 9043 ft | 270 kts | 110° |
| 2026-05-06 01:08 | 36.49529 | -4.41155 | 8905 ft | 270 kts | 115° |
| 2026-05-06 01:08 | 36.48609 | -4.39139 | 8709 ft | 267 kts | 130° |
| 2026-05-06 01:09 | 36.47391 | -4.37408 | 8318 ft | 266 kts | 135° |
| 2026-05-06 01:09 | 36.46147 | -4.35691 | 7935 ft | 267 kts | 134° |
| 2026-05-06 01:09 | 36.44923 | -4.33992 | 7682 ft | 261 kts | 134° |
| 2026-05-06 01:09 | 36.43726 | -4.32329 | 7434 ft | 255 kts | 134° |
| 2026-05-06 01:10 | 36.42565 | -4.30717 | 7188 ft | 252 kts | 134° |
| 2026-05-06 01:10 | 36.41380 | -4.29075 | 6933 ft | 252 kts | 135° |
| 2026-05-06 01:10 | 36.40609 | -4.28008 | 6773 ft | 250 kts | 134° |
| 2026-05-06 01:10 | 36.39460 | -4.26413 | 6496 ft | 246 kts | 132° |
| 2026-05-06 01:11 | 36.38652 | -4.24577 | 6195 ft | 244 kts | 102° |
| 2026-05-06 01:11 | 36.38712 | -4.22508 | 5889 ft | 241 kts | 69° |
| 2026-05-06 01:11 | 36.39450 | -4.20663 | 5590 ft | 237 kts | 49° |
| 2026-05-06 01:11 | 36.41093 | -4.18999 | 5193 ft | 228 kts | 20° |
| 2026-05-06 01:12 | 36.42102 | -4.18585 | 4993 ft | 225 kts | 7° |
| 2026-05-06 01:12 | 36.43633 | -4.18542 | 4705 ft | 218 kts | 348° |
| 2026-05-06 01:12 | 36.45046 | -4.19134 | 4449 ft | 214 kts | 329° |
| 2026-05-06 01:12 | 36.46204 | -4.20263 | 4193 ft | 212 kts | 312° |
| 2026-05-06 01:13 | 36.47196 | -4.21642 | 3943 ft | 214 kts | 313° |
| 2026-05-06 01:13 | 36.48175 | -4.23000 | 3693 ft | 213 kts | 313° |
| 2026-05-06 01:13 | 36.49161 | -4.24369 | 3439 ft | 212 kts | 313° |
| 2026-05-06 01:13 | 36.50139 | -4.25725 | 3192 ft | 209 kts | 313° |
| 2026-05-06 01:14 | 36.52074 | -4.28413 | 2996 ft | 209 kts | 314° |
| 2026-05-06 01:14 | 36.53042 | -4.29758 | 2998 ft | 209 kts | 314° |
| 2026-05-06 01:14 | 36.54010 | -4.31105 | 3000 ft | 209 kts | 314° |
| 2026-05-06 01:15 | 36.54956 | -4.32422 | 2990 ft | 197 kts | 314° |
| 2026-05-06 01:15 | 36.55828 | -4.33637 | 3014 ft | 180 kts | 314° |
| 2026-05-06 01:15 | 36.56642 | -4.34770 | 2878 ft | 172 kts | 314° |
| 2026-05-06 01:15 | 36.57428 | -4.35863 | 2686 ft | 167 kts | 314° |
| 2026-05-06 01:16 | 36.58190 | -4.36925 | 2478 ft | 162 kts | 314° |
| 2026-05-06 01:16 | 36.58931 | -4.37958 | 2271 ft | 158 kts | 314° |
| 2026-05-06 01:16 | 36.59651 | -4.38960 | 2067 ft | 153 kts | 314° |
| 2026-05-06 01:16 | 36.60352 | -4.39937 | 1868 ft | 150 kts | 314° |
| 2026-05-06 01:17 | 36.61024 | -4.40876 | 1675 ft | 141 kts | 314° |
| 2026-05-06 01:17 | 36.61666 | -4.41771 | 1506 ft | 137 kts | 313° |
| 2026-05-06 01:17 | 36.62297 | -4.42651 | 1317 ft | 135 kts | 313° |
| 2026-05-06 01:17 | 36.62912 | -4.43510 | 1133 ft | 135 kts | 312° |
| 2026-05-06 01:18 | 36.63532 | -4.44375 | 939 ft | 134 kts | 311° |
| 2026-05-06 01:18 | 36.64155 | -4.45240 | 766 ft | 134 kts | 310° |
| 2026-05-06 01:18 | 36.64775 | -4.46106 | 611 ft | 135 kts | 309° |
| 2026-05-06 01:18 | 36.65398 | -4.46979 | 420 ft | 134 kts | 308° |
| 2026-05-06 01:19 | 36.66013 | -4.47836 | 255 ft | 132 kts | 308° |
| 2026-05-06 01:19 | 36.66626 | -4.48697 | 54 ft | 132 kts | 309° |
| 2026-05-06 01:19 | 36.67166 | -4.49460 | 47 ft | 97 kts | 311° |
| 2026-05-06 01:19 | 36.67504 | -4.49929 | 51 ft | 49 kts | 311° |
| 2026-05-06 01:20 | 36.67702 | -4.50159 | 54 ft | 32 kts | 325° |
| 2026-05-06 01:20 | 36.67833 | -4.50234 | 50 ft | 9 kts | 343° |
| 2026-05-06 01:20 | 36.67881 | -4.50187 | 46 ft | 12 kts | 86° |
| 2026-05-06 01:20 | 36.67837 | -4.50101 | 44 ft | 12 kts | 133° |
| 2026-05-06 01:21 | 36.67786 | -4.50029 | 44 ft | 11 kts | 131° |
| 2026-05-06 01:21 | 36.67731 | -4.49951 | 43 ft | 12 kts | 130° |
| 2026-05-06 01:21 | 36.67678 | -4.49874 | 43 ft | 13 kts | 131° |
| 2026-05-06 01:21 | 36.67620 | -4.49795 | 43 ft | 12 kts | 132° |
| 2026-05-06 01:22 | 36.67567 | -4.49720 | 43 ft | 13 kts | 131° |
| 2026-05-06 01:22 | 36.67509 | -4.49637 | 43 ft | 12 kts | 131° |
| 2026-05-06 01:22 | 36.67453 | -4.49562 | 42 ft | 11 kts | 134° |
| 2026-05-06 01:22 | 36.67403 | -4.49493 | 43 ft | 10 kts | 131° |
| 2026-05-06 01:23 | 36.67361 | -4.49432 | 43 ft | 10 kts | 130° |
| 2026-05-06 01:23 | 36.67330 | -4.49383 | 42 ft | 8 kts | 120° |
| 2026-05-06 01:23 | 36.67349 | -4.49307 | 39 ft | 10 kts | 70° |
| 2026-05-06 01:23 | 36.67362 | -4.49230 | 42 ft | 8 kts | 69° |
| 2026-05-06 01:24 | 36.67401 | -4.49186 | 41 ft | 7 kts | 6° |
| 2026-05-06 01:24 | 36.67442 | -4.49199 | 42 ft | 5 kts | 334° |
| 2026-05-06 01:24 | 36.67458 | -4.49209 | 40 ft | 1 kts | 330° |
| 2026-05-06 01:24 | 36.67460 | -4.49211 | 40 ft | 0 kts | 330° |